createdAt,value
2019-06-10T00:00:21.223Z,19.30
2019-06-10T00:02:52.114Z,19.20
2019-06-10T00:05:23.269Z,19.30
2019-06-10T00:07:55.811Z,19.20
2019-06-10T00:10:27.307Z,19.20
2019-06-10T00:13:01.013Z,19.10
2019-06-10T00:15:32.063Z,19.10
2019-06-10T00:18:29.508Z,19.10
2019-06-10T00:20:37.185Z,18.90
2019-06-10T00:23:08.469Z,19.00
2019-06-10T00:25:41.294Z,19.00
2019-06-10T00:28:12.766Z,19.00
2019-06-10T00:30:44.143Z,19.10
2019-06-10T00:33:15.492Z,19.10
2019-06-10T00:35:46.753Z,19.20
2019-06-10T00:38:18.290Z,19.10
2019-06-10T00:40:51.287Z,19.20
2019-06-10T00:43:23.028Z,19.20
2019-06-10T00:45:54.214Z,19.30
2019-06-10T00:48:29.090Z,19.20
2019-06-10T00:51:01.050Z,19.20
2019-06-10T00:53:32.023Z,19.10
2019-06-10T00:56:05.201Z,19.00
2019-06-10T00:58:36.041Z,19.00
2019-06-10T01:01:07.960Z,18.90
2019-06-10T01:03:41.474Z,18.90
2019-06-10T01:06:15.158Z,18.90
2019-06-10T01:08:45.728Z,18.70
2019-06-10T01:11:21.562Z,18.70
2019-06-10T01:13:50.826Z,18.60
2019-06-10T01:16:22.248Z,18.70
2019-06-10T01:18:53.807Z,18.70
2019-06-10T01:21:26.318Z,18.70
2019-06-10T01:23:57.535Z,18.70
2019-06-10T01:26:30.988Z,18.80
2019-06-10T01:29:01.941Z,18.80
2019-06-10T01:31:33.145Z,18.90
2019-06-10T01:34:05.442Z,18.80
2019-06-10T01:36:37.392Z,18.80
2019-06-10T01:39:09.640Z,18.80
2019-06-10T01:41:41.916Z,18.80
2019-06-10T01:44:14.656Z,18.80
2019-06-10T01:46:46.280Z,18.80
2019-06-10T01:49:18.169Z,18.60
2019-06-10T01:51:51.330Z,18.60
2019-06-10T01:54:22.312Z,18.50
2019-06-10T01:56:53.766Z,18.50
2019-06-10T01:59:25.215Z,18.60
2019-06-10T02:02:03.747Z,18.50
2019-06-10T02:04:34.939Z,18.60
2019-06-10T02:07:06.532Z,18.60
2019-06-10T02:09:37.944Z,18.60
2019-06-10T02:12:12.224Z,18.60
2019-06-10T02:14:42.691Z,18.60
2019-06-10T02:17:16.357Z,18.50
2019-06-10T02:19:47.159Z,18.50
2019-06-10T02:22:20.301Z,18.40
2019-06-10T02:24:51.906Z,18.40
2019-06-10T02:27:23.331Z,18.50
2019-06-10T02:29:56.464Z,18.40
2019-06-10T02:32:32.986Z,18.50
2019-06-10T02:35:10.512Z,18.50
2019-06-10T02:37:37.885Z,18.60
2019-06-10T02:40:08.529Z,18.60
2019-06-10T02:42:43.653Z,18.60
2019-06-10T02:45:19.647Z,18.50
2019-06-10T02:47:48.216Z,18.40
2019-06-10T02:50:32.607Z,18.40
2019-06-10T02:52:59.840Z,18.40
2019-06-10T02:55:34.964Z,18.40
2019-06-10T02:58:04.348Z,18.30
2019-06-10T03:00:43.456Z,18.30
2019-06-10T03:03:13.471Z,18.30
2019-06-10T03:05:46.538Z,18.30
2019-06-10T03:08:16.194Z,18.30
2019-06-10T03:10:47.506Z,18.30
2019-06-10T03:13:19.726Z,18.30
2019-06-10T03:16:02.795Z,18.20
2019-06-10T03:18:34.069Z,18.20
2019-06-10T03:21:06.682Z,18.20
2019-06-10T03:23:38.331Z,18.10
2019-06-10T03:26:12.173Z,18.20
2019-06-10T03:28:43.077Z,18.10
2019-06-10T03:31:15.524Z,18.20
2019-06-10T03:33:48.159Z,18.20
2019-06-10T03:36:20.122Z,18.20
2019-06-10T03:38:53.725Z,18.30
2019-06-10T03:41:26.476Z,18.30
2019-06-10T03:43:58.193Z,18.20
2019-06-10T03:46:29.822Z,18.10
2019-06-10T03:49:02.984Z,18.00
2019-06-10T03:51:33.860Z,18.00
2019-06-10T03:54:05.126Z,18.00
2019-06-10T03:56:36.646Z,18.00
2019-06-10T03:59:07.949Z,18.10
2019-06-10T04:01:39.098Z,18.00
2019-06-10T04:04:12.810Z,18.10
2019-06-10T04:06:44.491Z,18.10
2019-06-10T04:09:15.827Z,18.20
2019-06-10T04:11:47.113Z,18.20
2019-06-10T04:14:19.340Z,18.30
2019-06-10T04:16:52.547Z,18.40
2019-06-10T04:19:25.542Z,18.50
2019-06-10T04:21:56.799Z,18.50
2019-06-10T04:24:28.609Z,18.50
2019-06-10T04:26:59.773Z,18.60
2019-06-10T04:29:32.892Z,18.60
2019-06-10T04:32:03.890Z,18.70
2019-06-10T04:34:36.022Z,18.70
2019-06-10T04:37:07.200Z,18.70
2019-06-10T04:39:39.592Z,18.60
2019-06-10T04:42:12.946Z,18.60
2019-06-10T04:44:44.123Z,18.70
2019-06-10T04:47:15.406Z,18.70
2019-06-10T04:49:47.335Z,18.70
2019-06-10T04:52:18.698Z,18.80
2019-06-10T04:54:50.000Z,18.80
2019-06-10T04:57:23.837Z,18.70
2019-06-10T04:59:54.536Z,18.70
2019-06-10T05:02:27.274Z,18.70
2019-06-10T05:04:59.690Z,18.60
2019-06-10T05:07:34.147Z,18.70
2019-06-10T05:10:06.347Z,18.70
2019-06-10T05:12:37.682Z,18.80
2019-06-10T05:15:09.496Z,18.90
2019-06-10T05:17:43.063Z,18.90
2019-06-10T05:20:13.836Z,19.00
2019-06-10T05:22:45.364Z,19.10
2019-06-10T05:25:16.612Z,19.20
2019-06-10T05:27:48.181Z,19.30
2019-06-10T05:30:20.091Z,19.40
2019-06-10T05:32:52.394Z,19.50
2019-06-10T05:35:26.616Z,19.50
2019-06-10T05:37:57.284Z,19.60
2019-06-10T05:40:29.368Z,19.60
2019-06-10T05:43:02.432Z,19.60
2019-06-10T05:45:35.107Z,19.60
2019-06-10T05:48:07.676Z,19.60
2019-06-10T05:50:39.246Z,19.60
2019-06-10T05:53:13.105Z,19.70
2019-06-10T05:55:44.110Z,19.70
2019-06-10T05:58:15.421Z,19.80
2019-06-10T06:00:47.089Z,19.80
2019-06-10T06:03:18.672Z,19.90
2019-06-10T06:05:52.513Z,19.90
2019-06-10T06:08:23.360Z,20.00
2019-06-10T06:10:54.941Z,20.10
2019-06-10T06:13:27.356Z,20.00
2019-06-10T06:15:58.627Z,20.00
2019-06-10T06:18:30.010Z,20.10
2019-06-10T06:21:20.110Z,20.10
2019-06-10T06:23:36.737Z,20.00
2019-06-10T06:26:07.711Z,20.10
2019-06-10T06:28:39.343Z,20.10
2019-06-10T06:31:12.681Z,20.20
2019-06-10T06:33:44.309Z,20.20
2019-06-10T06:36:15.543Z,20.30
2019-06-10T06:38:46.630Z,20.40
2019-06-10T06:41:18.317Z,20.30
2019-06-10T06:43:49.981Z,20.40
2019-06-10T06:46:23.453Z,20.40
2019-06-10T06:48:55.102Z,20.50
2019-06-10T06:51:38.013Z,20.60
2019-06-10T06:53:59.708Z,20.70
2019-06-10T06:56:34.556Z,20.80
2019-06-10T06:59:03.717Z,20.80
2019-06-10T07:01:37.635Z,20.80
2019-06-10T07:04:08.481Z,20.90
2019-06-10T07:06:43.230Z,21.00
2019-06-10T07:09:15.028Z,21.10
2019-06-10T07:11:48.263Z,21.10
2019-06-10T07:14:23.161Z,21.10
2019-06-10T07:16:53.928Z,21.20
2019-06-10T07:19:25.505Z,21.20
2019-06-10T07:22:09.681Z,21.30
2019-06-10T07:24:32.693Z,21.30
2019-06-10T07:27:03.397Z,21.30
2019-06-10T07:29:38.489Z,21.30
2019-06-10T07:32:07.478Z,21.30
2019-06-10T07:34:40.099Z,21.30
2019-06-10T07:37:13.016Z,21.30
2019-06-10T07:39:45.415Z,21.40
2019-06-10T07:42:17.265Z,21.50
2019-06-10T07:44:48.551Z,21.50
2019-06-10T07:47:19.836Z,21.50
2019-06-10T07:49:52.233Z,21.50
2019-06-10T07:52:23.998Z,21.50
2019-06-10T07:54:55.165Z,21.60
2019-06-10T07:57:26.427Z,21.70
2019-06-10T07:59:57.630Z,21.80
2019-06-10T08:02:28.925Z,21.90
2019-06-10T08:05:03.516Z,21.90
2019-06-10T08:07:33.904Z,21.90
2019-06-10T08:10:08.692Z,21.90
2019-06-10T08:12:41.812Z,22.00
2019-06-10T08:15:13.955Z,22.00
2019-06-10T08:17:45.798Z,22.10
2019-06-10T08:20:36.969Z,22.20
2019-06-10T08:23:08.414Z,22.30
2019-06-10T08:25:40.472Z,22.40
2019-06-10T08:28:13.436Z,22.40
2019-06-10T08:30:46.116Z,22.40
2019-06-10T08:33:17.440Z,22.30
2019-06-10T08:35:57.330Z,22.30
2019-06-10T08:38:23.101Z,22.30
2019-06-10T08:40:54.635Z,22.30
2019-06-10T08:43:26.389Z,22.30
2019-06-10T08:45:57.679Z,22.30
2019-06-10T08:48:32.723Z,22.40
2019-06-10T08:51:04.092Z,22.40
2019-06-10T08:53:35.298Z,22.50
2019-06-10T08:56:07.177Z,22.50
2019-06-10T08:58:40.910Z,22.40
2019-06-10T09:01:13.299Z,22.40
2019-06-10T09:03:49.013Z,22.40
2019-06-10T09:06:18.688Z,22.40
2019-06-10T09:08:52.065Z,22.50
2019-06-10T09:11:23.681Z,22.50
2019-06-10T09:13:56.283Z,22.60
2019-06-10T09:16:27.873Z,22.60
2019-06-10T09:18:59.074Z,22.70
2019-06-10T09:21:32.845Z,22.50
2019-06-10T09:24:04.129Z,22.50
2019-06-10T09:26:35.436Z,22.60
2019-06-10T09:29:06.687Z,22.60
2019-06-10T09:31:40.338Z,22.60
2019-06-10T09:34:12.747Z,22.60
2019-06-10T09:36:47.982Z,22.60
2019-06-10T09:39:16.879Z,22.70
2019-06-10T09:41:56.626Z,22.80
2019-06-10T09:44:22.910Z,22.80
2019-06-10T09:47:00.260Z,22.80
2019-06-10T09:49:33.556Z,22.80
2019-06-10T09:52:04.910Z,22.80
2019-06-10T09:54:37.135Z,22.80
2019-06-10T09:57:08.346Z,22.90
2019-06-10T09:59:43.949Z,22.90
2019-06-10T10:02:13.616Z,22.90
2019-06-10T10:04:48.854Z,22.90
2019-06-10T10:07:18.352Z,23.00
2019-06-10T10:09:51.902Z,23.00
2019-06-10T10:12:22.848Z,23.20
2019-06-10T10:14:56.260Z,23.40
2019-06-10T10:17:27.067Z,23.40
2019-06-10T10:19:58.655Z,23.60
2019-06-10T10:22:30.294Z,23.60
2019-06-10T10:25:03.036Z,23.80
2019-06-10T10:27:34.473Z,24.00
2019-06-10T10:30:06.921Z,24.20
2019-06-10T10:32:37.993Z,24.10
2019-06-10T10:35:09.532Z,24.10
2019-06-10T10:37:40.662Z,24.20
2019-06-10T10:40:12.421Z,24.40
2019-06-10T10:42:48.612Z,24.40
2019-06-10T10:45:17.630Z,24.60
2019-06-10T10:47:49.130Z,24.80
2019-06-10T10:50:22.512Z,24.80
2019-06-10T10:52:54.008Z,24.80
2019-06-10T10:55:25.240Z,24.90
2019-06-10T10:57:56.640Z,25.10
2019-06-10T11:00:41.208Z,25.20
2019-06-10T11:03:13.375Z,25.30
2019-06-10T11:05:48.121Z,25.10
2019-06-10T11:08:18.328Z,25.20
2019-06-10T11:10:55.499Z,25.30
2019-06-10T11:13:28.247Z,25.30
2019-06-10T11:15:59.427Z,25.20
2019-06-10T11:18:30.698Z,25.30
2019-06-10T11:21:04.921Z,25.40
2019-06-10T11:23:35.212Z,25.50
2019-06-10T11:26:06.877Z,25.60
2019-06-10T11:28:38.419Z,25.70
2019-06-10T11:31:09.898Z,26.00
2019-06-10T11:33:43.561Z,26.30
2019-06-10T11:36:15.854Z,26.40
2019-06-10T11:38:48.539Z,26.40
2019-06-10T11:41:19.929Z,26.60
2019-06-10T11:43:53.690Z,26.70
2019-06-10T11:46:24.638Z,26.40
2019-06-10T11:48:58.534Z,26.20
2019-06-10T11:51:28.831Z,26.40
2019-06-10T11:54:00.103Z,26.60
2019-06-10T11:56:33.644Z,26.70
2019-06-10T11:59:09.485Z,26.70
2019-06-10T12:01:37.829Z,26.80
2019-06-10T12:04:09.282Z,26.80
2019-06-10T12:06:42.543Z,27.10
2019-06-10T12:09:13.979Z,27.10
2019-06-10T12:11:45.102Z,27.30
2019-06-10T12:14:16.409Z,27.60
2019-06-10T12:19:23.382Z,27.80
2019-06-10T12:21:57.742Z,27.90
2019-06-10T12:24:26.637Z,27.90
2019-06-10T12:26:59.881Z,27.60
2019-06-10T12:29:30.922Z,27.90
2019-06-10T12:32:06.932Z,28.10
2019-06-10T12:34:35.452Z,28.10
2019-06-10T12:37:11.131Z,28.10
2019-06-10T12:39:42.047Z,28.00
2019-06-10T12:42:14.273Z,28.00
2019-06-10T12:44:45.609Z,28.10
2019-06-10T12:47:16.908Z,28.10
2019-06-10T12:49:48.148Z,28.10
2019-06-10T12:52:19.637Z,28.20
2019-06-10T12:54:50.926Z,28.00
2019-06-10T12:57:22.992Z,28.20
2019-06-10T12:59:54.495Z,28.40
2019-06-10T13:02:31.240Z,28.50
2019-06-10T13:04:59.613Z,28.60
2019-06-10T13:07:32.910Z,28.70
2019-06-10T13:10:05.014Z,28.70
2019-06-10T13:12:36.181Z,28.70
2019-06-10T13:15:09.916Z,28.70
2019-06-10T13:17:43.937Z,28.70
2019-06-10T13:20:14.245Z,28.50
2019-06-10T13:22:46.014Z,28.00
2019-06-10T13:25:17.297Z,28.10
2019-06-10T13:27:48.448Z,27.60
2019-06-10T13:30:19.836Z,27.60
2019-06-10T13:32:52.703Z,27.40
2019-06-10T13:35:24.063Z,27.70
2019-06-10T13:37:55.271Z,27.70
2019-06-10T13:40:26.669Z,27.30
2019-06-10T13:42:57.848Z,27.40
2019-06-10T13:45:29.439Z,27.50
2019-06-10T13:48:03.790Z,27.40
2019-06-10T13:50:33.547Z,27.50
2019-06-10T13:53:06.542Z,27.60
2019-06-10T13:55:38.423Z,28.00
2019-06-10T13:58:12.339Z,27.70
2019-06-10T14:00:46.646Z,27.70
2019-06-10T14:03:17.824Z,28.00
2019-06-10T14:05:48.992Z,28.30
2019-06-10T14:08:23.032Z,28.20
2019-06-10T14:10:55.019Z,28.20
2019-06-10T14:13:26.448Z,28.40
2019-06-10T14:15:58.727Z,28.50
2019-06-10T14:18:32.402Z,28.30
2019-06-10T14:21:06.625Z,27.90
2019-06-10T14:23:36.104Z,27.80
2019-06-10T14:26:08.514Z,27.90
2019-06-10T14:28:44.039Z,28.20
2019-06-10T14:31:33.730Z,28.30
2019-06-10T14:33:46.743Z,28.40
2019-06-10T14:36:18.319Z,28.40
2019-06-10T14:38:49.874Z,28.60
2019-06-10T14:41:23.110Z,28.40
2019-06-10T14:43:53.832Z,28.60
2019-06-10T14:46:25.094Z,28.70
2019-06-10T14:48:56.377Z,28.90
2019-06-10T14:51:28.244Z,29.00
2019-06-10T14:53:59.448Z,29.10
2019-06-10T14:56:30.591Z,29.20
2019-06-10T14:59:02.467Z,29.20
2019-06-10T15:01:33.679Z,29.30
2019-06-10T15:04:05.804Z,28.80
2019-06-10T15:06:37.449Z,28.70
2019-06-10T15:09:09.527Z,28.30
2019-06-10T15:11:42.811Z,28.50
2019-06-10T15:14:15.727Z,28.70
2019-06-10T15:16:46.344Z,28.80
2019-06-10T15:19:24.467Z,28.90
2019-06-10T15:21:52.367Z,28.50
2019-06-10T15:24:24.365Z,28.40
2019-06-10T15:27:08.970Z,28.30
2019-06-10T15:29:28.919Z,28.20
2019-06-10T15:32:10.447Z,28.00
2019-06-10T15:34:34.030Z,27.90
2019-06-10T15:37:05.283Z,27.70
2019-06-10T15:39:36.508Z,27.50
2019-06-10T15:42:07.766Z,27.50
2019-06-10T15:44:52.556Z,27.50
2019-06-10T15:47:13.953Z,27.40
2019-06-10T15:49:45.051Z,27.30
2019-06-10T15:52:18.830Z,27.30
2019-06-10T15:54:49.691Z,27.20
2019-06-10T15:57:36.701Z,27.20
2019-06-10T15:59:53.782Z,27.20
2019-06-10T16:02:25.637Z,27.20
2019-06-10T16:04:56.953Z,27.30
2019-06-10T16:07:28.092Z,27.40
2019-06-10T16:09:59.307Z,27.30
2019-06-10T16:12:33.029Z,27.20
2019-06-10T16:15:03.926Z,27.30
2019-06-10T16:17:35.342Z,27.10
2019-06-10T16:20:07.375Z,27.00
2019-06-10T16:22:38.598Z,27.10
2019-06-10T16:25:12.564Z,27.10
2019-06-10T16:27:48.598Z,27.10
2019-06-10T16:30:18.116Z,27.00
2019-06-10T16:32:49.491Z,27.00
2019-06-10T16:35:23.485Z,26.90
2019-06-10T16:37:56.683Z,26.80
2019-06-10T16:40:27.385Z,26.80
2019-06-10T16:42:58.726Z,26.80
2019-06-10T16:45:31.701Z,26.70
2019-06-10T16:48:03.007Z,26.70
2019-06-10T16:50:34.318Z,26.70
2019-06-10T16:53:05.667Z,26.70
2019-06-10T16:55:37.152Z,26.60
2019-06-10T16:58:08.605Z,26.70
2019-06-10T17:00:43.009Z,26.70
2019-06-10T17:03:13.196Z,26.70
2019-06-10T17:05:44.607Z,26.70
2019-06-10T17:08:15.877Z,26.70
2019-06-10T17:10:47.489Z,26.60
2019-06-10T17:13:21.486Z,26.60
2019-06-10T17:15:53.808Z,26.40
2019-06-10T17:18:27.792Z,26.30
2019-06-10T17:20:58.993Z,26.20
2019-06-10T17:23:36.030Z,26.20
2019-06-10T17:26:03.890Z,26.00
2019-06-10T17:28:36.895Z,26.00
2019-06-10T17:31:08.373Z,25.80
2019-06-10T17:33:42.457Z,25.60
2019-06-10T17:36:12.787Z,25.30
2019-06-10T17:38:43.962Z,25.00
2019-06-10T17:41:15.768Z,24.80
2019-06-10T17:43:47.055Z,24.60
2019-06-10T17:46:18.322Z,24.20
2019-06-10T17:48:52.119Z,24.00
2019-06-10T17:51:26.172Z,23.90
2019-06-10T17:53:56.906Z,23.60
2019-06-10T17:56:29.460Z,23.50
2019-06-10T17:59:03.379Z,23.40
2019-06-10T18:01:35.668Z,23.40
2019-06-10T18:04:07.067Z,23.20
2019-06-10T18:06:38.696Z,23.10
2019-06-10T18:09:12.252Z,23.00
2019-06-10T18:11:43.055Z,22.70
2019-06-10T18:14:14.569Z,22.70
2019-06-10T18:16:46.079Z,22.50
2019-06-10T18:19:17.646Z,22.40
2019-06-10T18:21:48.852Z,22.30
2019-06-10T18:24:23.363Z,22.20
2019-06-10T18:26:53.195Z,22.20
2019-06-10T18:29:25.209Z,22.00
2019-06-10T18:31:56.389Z,21.90
2019-06-10T18:34:27.750Z,22.00
2019-06-10T18:36:59.330Z,21.90
2019-06-10T18:39:31.460Z,21.90
2019-06-10T18:42:03.546Z,21.90
2019-06-10T18:44:37.097Z,22.10
2019-06-10T18:47:08.493Z,22.20
2019-06-10T18:49:41.117Z,22.10
2019-06-10T18:52:13.175Z,22.10
2019-06-10T18:54:44.851Z,22.20
2019-06-10T18:57:16.099Z,22.10
2019-06-10T18:59:47.415Z,22.20
2019-06-10T19:02:18.695Z,22.30
2019-06-10T19:04:54.359Z,22.30
2019-06-10T19:07:24.060Z,22.40
2019-06-10T19:09:56.016Z,22.40
2019-06-10T19:12:29.172Z,22.40
2019-06-10T19:15:02.647Z,22.40
2019-06-10T19:17:38.228Z,22.50
2019-06-10T19:20:09.172Z,22.50
2019-06-10T19:22:42.704Z,22.50
2019-06-10T19:25:13.874Z,22.40
2019-06-10T19:27:45.199Z,22.40
2019-06-10T19:30:17.922Z,22.30
2019-06-10T19:32:49.866Z,22.30
2019-06-10T19:35:22.394Z,22.20
2019-06-10T19:37:53.700Z,22.20
2019-06-10T19:40:25.140Z,22.10
2019-06-10T19:42:57.000Z,22.10
2019-06-10T19:45:28.186Z,22.10
2019-06-10T19:47:59.902Z,22.10
2019-06-10T19:50:34.019Z,22.10
2019-06-10T19:53:04.607Z,22.10
2019-06-10T19:55:36.971Z,22.10
2019-06-10T19:58:10.503Z,21.90
2019-06-10T20:00:50.227Z,21.90
2019-06-10T20:03:14.833Z,21.80
2019-06-10T20:05:47.103Z,21.80
2019-06-10T20:08:19.051Z,21.90
2019-06-10T20:10:53.100Z,21.80
2019-06-10T20:13:23.915Z,21.90
2019-06-10T20:15:55.661Z,21.90
2019-06-10T20:18:27.454Z,21.90
2019-06-10T20:20:58.784Z,21.90
2019-06-10T20:23:30.253Z,21.90
2019-06-10T20:26:01.554Z,21.90
2019-06-10T20:28:33.034Z,21.80
2019-06-10T20:31:04.469Z,21.60
2019-06-10T20:33:38.964Z,21.50
2019-06-10T20:36:17.725Z,21.30
2019-06-10T20:38:46.782Z,21.40
2019-06-10T20:41:16.002Z,21.20
2019-06-10T20:43:47.451Z,21.20
2019-06-10T20:46:18.659Z,21.20
2019-06-10T20:48:51.967Z,21.20
2019-06-10T20:51:26.736Z,21.00
2019-06-10T20:53:55.870Z,21.00
2019-06-10T20:56:27.153Z,20.90
2019-06-10T20:58:58.351Z,20.80
2019-06-10T21:01:29.560Z,20.90
2019-06-10T21:04:03.161Z,20.90
2019-06-10T21:06:35.884Z,20.90
2019-06-10T21:09:09.824Z,21.00
2019-06-10T21:11:45.134Z,21.00
2019-06-10T21:14:14.483Z,20.90
2019-06-10T21:16:46.468Z,20.90
2019-06-10T21:19:17.877Z,20.80
2019-06-10T21:21:50.352Z,20.90
2019-06-10T21:24:23.155Z,21.00
2019-06-10T21:26:56.039Z,21.10
2019-06-10T21:29:27.189Z,21.20
2019-06-10T21:31:58.394Z,21.20
2019-06-10T21:34:29.833Z,21.20
2019-06-10T21:37:03.198Z,21.20
2019-06-10T21:39:33.972Z,21.10
2019-06-10T21:42:05.538Z,21.10
2019-06-10T21:44:36.948Z,21.00
2019-06-10T21:47:09.204Z,20.90
2019-06-10T21:49:42.475Z,20.90
2019-06-10T21:52:13.736Z,20.90
2019-06-10T21:54:45.217Z,20.90
2019-06-10T21:57:16.721Z,20.90
2019-06-10T21:59:48.941Z,20.80
2019-06-10T22:02:22.984Z,20.80
2019-06-10T22:04:55.525Z,20.80
2019-06-10T22:07:26.997Z,20.70
2019-06-10T22:09:58.549Z,20.70
2019-06-10T22:12:30.102Z,20.60
2019-06-10T22:15:01.350Z,20.60
2019-06-10T22:17:32.660Z,20.60
2019-06-10T22:20:03.981Z,20.50
2019-06-10T22:22:35.423Z,20.50
2019-06-10T22:25:07.343Z,20.50
2019-06-10T22:27:38.461Z,20.50
2019-06-10T22:30:11.414Z,20.40
2019-06-10T22:32:43.513Z,20.40
2019-06-10T22:35:15.200Z,20.30
2019-06-10T22:37:47.747Z,20.30
2019-06-10T22:40:19.256Z,20.30
2019-06-10T22:42:53.686Z,20.40
2019-06-10T22:45:23.522Z,20.50
2019-06-10T22:47:55.656Z,20.30
2019-06-10T22:50:28.240Z,20.00
2019-06-10T22:52:59.714Z,19.90
2019-06-10T22:55:32.143Z,19.60
2019-06-10T22:58:06.248Z,19.40
2019-06-10T23:00:36.424Z,19.30
2019-06-10T23:03:07.786Z,19.30
2019-06-10T23:05:38.992Z,19.20
2019-06-10T23:08:12.443Z,19.20
2019-06-10T23:10:43.484Z,19.10
2019-06-10T23:13:17.041Z,19.00
2019-06-10T23:15:48.770Z,19.10
2019-06-10T23:18:22.308Z,19.10
2019-06-10T23:20:55.834Z,19.10
2019-06-10T23:23:26.075Z,19.20
2019-06-10T23:25:58.027Z,19.20
2019-06-10T23:28:29.277Z,19.10
2019-06-10T23:31:01.905Z,19.00
2019-06-10T23:33:33.527Z,19.00
2019-06-10T23:36:04.783Z,19.00
2019-06-10T23:38:35.915Z,18.90
2019-06-10T23:41:07.121Z,18.80
2019-06-10T23:43:38.288Z,18.70
2019-06-10T23:46:11.977Z,18.50
2019-06-10T23:48:42.493Z,18.40
2019-06-10T23:51:14.064Z,18.30
2019-06-10T23:53:45.487Z,18.30
2019-06-10T23:56:16.975Z,18.40
2019-06-10T23:58:49.141Z,18.50
